首页
METAR-TAF:

METAR-TAF

机场 :

不来梅机场

不来梅, 德国

纬度: 53-03N, 经度: 008-48E, 海拔: 3米

当前天气观测

该预报发布于12分钟前的08:20 UTC
风速7节,风向西,在西转西南西北之间变化
温度 21°C
湿度 60%
气压 1013 hPa
能见度10公里或以上
散云层高于2500英尺

METAR: EDDW 190820Z 27007KT 240V310 9999 SCT025 21/13 Q1013 NOSIG

时间: 10:32 (08:32 UTC)

预报

该预报发布于1小时和48分钟前的06:44 UTC
预报有效从19日的 06点(UTC)到 20日的 06点(UTC)
风速4节,风向南转西南
能见度10公里或以上
散云层高于3000英尺
成为
从 19日的 06点(UTC)到 19日的 08点(UTC)
风速7节,风向西
几率 30% :
短暂存在
从 19日的 06点(UTC)到 19日的 08点(UTC)
多云层高于1200英尺
成为
从 19日的 17点(UTC)到 19日的 19点(UTC)
风速3节,风向多变
成为
从 20日的 04点(UTC)到 20日的 06点(UTC)
风速6节,风向东南

TAF: EDDW 190644Z 1906/2006 20004KT 9999 SCT030 BECMG 1906/1908 27007KT PROB30 TEMPO 1906/1908 BKN012 BECMG 1917/1919 VRB03KT BECMG 2004/2006 13006KT

超过4000个机场的气象观测和天气预报(METAR&TAF报告)。

可查询的气象台以黄色和红色小点在地图上表示。

将鼠标移到小点上方,可查看气象台名称。

然后点击查看天气观测和预报。

如需切换地图:点击带黑十字的绿色按钮放大地图;点击带横线的绿色按钮缩小地图;或者点击绿色箭头查看邻近地区的地图。


METAR-TAF: